Terminal Aerodrome Forecast
Issued by NWS

Home | Current Version | Previous Version | Text Only | Print | Product List | Glossary Off
Versions: 1 2 3 4 5 6 7 8 9 10 11 12 13 14

662
FTUS43 KMPX 181120
TAFAXN
TAF
KAXN 181120Z 1812/1912 21013G20KT P6SM FEW250
     FM181600 30018G26KT P6SM FEW250
     FM190000 26008KT P6SM SKC=

USA.gov is the U.S. government's official web portal to all federal, state and local government web resources and services.